createdAt,value
2022-12-01T00:01:47.596Z,93.14
2022-12-01T00:04:16.932Z,92.94
2022-12-01T00:06:46.165Z,92.92
2022-12-01T00:09:34.045Z,93.04
2022-12-01T00:12:03.350Z,92.79
2022-12-01T00:14:32.598Z,92.76
2022-12-01T00:17:02.070Z,92.56
2022-12-01T00:19:31.354Z,93.13
2022-12-01T00:22:00.740Z,93.23
2022-12-01T00:24:29.965Z,92.91
2022-12-01T00:26:59.204Z,92.73
2022-12-01T00:29:28.508Z,92.81
2022-12-01T00:31:57.941Z,93.18
2022-12-01T00:34:28.113Z,93.11
2022-12-01T00:36:57.410Z,93.26
2022-12-01T00:39:26.926Z,92.94
2022-12-01T00:41:56.339Z,93.02
2022-12-01T00:44:25.798Z,92.78
2022-12-01T00:46:55.234Z,92.81
2022-12-01T00:49:24.713Z,92.88
2022-12-01T00:51:54.021Z,92.90
2022-12-01T00:54:23.302Z,92.97
2022-12-01T00:56:52.737Z,92.90
2022-12-01T00:59:22.123Z,93.23
2022-12-01T01:01:52.651Z,93.06
2022-12-01T01:04:22.360Z,93.17
2022-12-01T01:06:52.569Z,93.25
2022-12-01T01:09:21.815Z,93.20
2022-12-01T01:11:51.069Z,93.44
2022-12-01T01:14:20.940Z,93.27
2022-12-01T01:16:50.419Z,93.17
2022-12-01T01:19:19.681Z,93.27
2022-12-01T01:21:48.910Z,93.20
2022-12-01T01:24:18.301Z,92.86
2022-12-01T01:26:47.526Z,92.82
2022-12-01T01:29:17.030Z,92.82
2022-12-01T01:31:46.253Z,92.78
2022-12-01T01:34:15.626Z,92.59
2022-12-01T01:36:44.997Z,92.70
2022-12-01T01:39:14.290Z,93.16
2022-12-01T01:41:43.876Z,93.23
2022-12-01T01:44:42.508Z,92.98
2022-12-01T01:47:11.991Z,93.20
2022-12-01T01:49:42.671Z,93.19
2022-12-01T01:52:11.903Z,93.28
2022-12-01T01:54:43.683Z,93.56
2022-12-01T01:57:15.311Z,93.56
2022-12-01T01:59:48.374Z,93.69
2022-12-01T02:02:18.169Z,93.91
2022-12-01T02:04:49.974Z,94.07
2022-12-01T02:07:20.733Z,94.37
2022-12-01T02:09:50.529Z,94.72
2022-12-01T02:12:28.759Z,95.02
2022-12-01T02:15:20.823Z,95.15
2022-12-01T02:18:01.918Z,95.20
2022-12-01T02:20:49.728Z,95.58
2022-12-01T02:23:33.943Z,95.68
2022-12-01T02:26:21.234Z,95.74
2022-12-01T02:28:59.548Z,96.06
2022-12-01T02:31:46.662Z,96.07
2022-12-01T02:34:46.088Z,96.02
2022-12-01T02:37:21.578Z,96.08
2022-12-01T02:40:12.533Z,96.13
2022-12-01T02:42:52.043Z,96.11
2022-12-01T02:45:27.498Z,96.00
2022-12-01T02:48:00.441Z,96.05
2022-12-01T02:50:31.522Z,96.13
2022-12-01T02:53:02.643Z,96.21
2022-12-01T02:55:32.065Z,96.25
2022-12-01T02:58:01.487Z,96.21
2022-12-01T03:00:32.062Z,96.10
2022-12-01T03:03:10.427Z,95.97
2022-12-01T03:05:42.813Z,96.06
2022-12-01T03:08:31.540Z,96.04
2022-12-01T03:11:02.730Z,95.98
2022-12-01T03:14:10.267Z,96.13
2022-12-01T03:16:48.896Z,96.04
2022-12-01T03:19:30.024Z,96.05
2022-12-01T03:22:11.651Z,95.91
2022-12-01T03:24:43.408Z,95.87
2022-12-01T03:27:13.873Z,95.76
2022-12-01T03:29:45.474Z,95.81
2022-12-01T03:32:21.237Z,95.78
2022-12-01T03:35:10.823Z,95.73
2022-12-01T03:37:46.318Z,95.73
2022-12-01T03:40:18.354Z,95.81
2022-12-01T03:42:59.308Z,95.88
2022-12-01T03:45:48.345Z,95.77
2022-12-01T03:48:18.021Z,95.79
2022-12-01T03:50:56.136Z,95.86
2022-12-01T03:53:31.788Z,95.70
2022-12-01T03:56:03.666Z,95.85
2022-12-01T03:58:41.696Z,95.84
2022-12-01T04:01:11.373Z,95.81
2022-12-01T04:03:40.749Z,95.90
2022-12-01T04:06:10.036Z,95.86
2022-12-01T04:08:40.009Z,95.77
2022-12-01T04:11:32.387Z,95.82
2022-12-01T04:13:58.626Z,95.70
2022-12-01T04:16:27.935Z,95.73
2022-12-01T04:18:57.446Z,95.78
2022-12-01T04:21:26.657Z,95.79
2022-12-01T04:24:01.970Z,95.80
2022-12-01T04:26:34.015Z,95.80
2022-12-01T04:29:05.329Z,95.82
2022-12-01T04:31:35.243Z,95.88
2022-12-01T04:34:04.591Z,95.81
2022-12-01T04:36:35.453Z,95.86
2022-12-01T04:39:05.207Z,95.83
2022-12-01T04:41:34.482Z,95.78
2022-12-01T04:44:03.704Z,95.91
2022-12-01T04:46:33.019Z,95.87
2022-12-01T04:49:02.229Z,95.81
2022-12-01T04:51:32.098Z,95.79
2022-12-01T04:54:03.112Z,95.81
2022-12-01T04:56:33.644Z,95.79
2022-12-01T04:59:02.913Z,95.72
2022-12-01T05:01:32.368Z,95.76
2022-12-01T05:04:01.858Z,95.68
2022-12-01T05:06:31.338Z,95.57
2022-12-01T05:09:02.464Z,95.52
2022-12-01T05:11:32.993Z,95.51
2022-12-01T05:14:02.300Z,95.65
2022-12-01T05:16:33.132Z,95.62
2022-12-01T05:19:16.036Z,95.66
2022-12-01T05:21:47.479Z,95.70
2022-12-01T05:24:17.623Z,95.58
2022-12-01T05:26:46.848Z,95.50
2022-12-01T05:29:16.343Z,95.46
2022-12-01T05:31:47.298Z,95.52
2022-12-01T05:34:16.661Z,95.37
2022-12-01T05:36:45.894Z,95.37
2022-12-01T05:39:15.303Z,95.38
2022-12-01T05:41:44.504Z,95.48
2022-12-01T05:44:13.758Z,95.57
2022-12-01T05:46:43.224Z,95.47
2022-12-01T05:49:12.598Z,95.54
2022-12-01T05:51:43.365Z,95.53
2022-12-01T05:54:12.605Z,95.50
2022-12-01T05:56:41.901Z,95.42
2022-12-01T05:59:11.135Z,95.54
2022-12-01T06:01:40.397Z,95.36
2022-12-01T06:04:09.752Z,95.14
2022-12-01T06:06:39.233Z,95.31
2022-12-01T06:09:09.094Z,95.21
2022-12-01T06:11:38.489Z,95.28
2022-12-01T06:14:07.751Z,95.21
2022-12-01T06:16:37.309Z,95.16
2022-12-01T06:19:06.605Z,95.07
2022-12-01T06:21:35.949Z,95.08
2022-12-01T06:24:05.407Z,95.22
2022-12-01T06:26:34.643Z,95.15
2022-12-01T06:29:03.884Z,95.26
2022-12-01T06:31:33.183Z,95.29
2022-12-01T06:34:02.420Z,95.30
2022-12-01T06:36:31.655Z,95.20
2022-12-01T06:39:00.986Z,95.04
2022-12-01T06:41:30.480Z,94.98
2022-12-01T06:43:59.744Z,94.96
2022-12-01T06:46:29.383Z,95.04
2022-12-01T06:48:58.757Z,95.09
2022-12-01T06:51:28.633Z,95.02
2022-12-01T06:54:03.797Z,94.74
2022-12-01T06:56:29.614Z,94.97
2022-12-01T06:58:59.254Z,95.34
2022-12-01T07:01:29.124Z,95.65
2022-12-01T07:03:58.469Z,95.83
2022-12-01T07:06:27.889Z,96.13
2022-12-01T07:08:58.784Z,96.17
2022-12-01T07:11:28.466Z,96.34
2022-12-01T07:13:57.889Z,96.42
2022-12-01T07:16:27.167Z,96.50
2022-12-01T07:18:56.605Z,96.54
2022-12-01T07:21:25.847Z,96.63
2022-12-01T07:23:56.025Z,96.71
2022-12-01T07:26:25.309Z,96.86
2022-12-01T07:28:54.792Z,96.96
2022-12-01T07:31:24.134Z,96.90
2022-12-01T07:33:54.019Z,96.92
2022-12-01T07:36:23.272Z,97.03
2022-12-01T07:38:52.536Z,97.02
2022-12-01T07:41:21.813Z,96.95
2022-12-01T07:43:52.240Z,96.89
2022-12-01T07:46:24.424Z,96.91
2022-12-01T07:48:55.131Z,96.83
2022-12-01T07:51:25.565Z,96.91
2022-12-01T07:53:55.984Z,96.99
2022-12-01T07:56:25.278Z,97.14
2022-12-01T07:58:54.663Z,97.14
2022-12-01T08:01:25.103Z,97.24
2022-12-01T08:03:57.000Z,97.17
2022-12-01T08:06:27.214Z,97.26
2022-12-01T08:08:57.013Z,97.45
2022-12-01T08:11:29.970Z,97.55
2022-12-01T08:13:59.621Z,97.54
2022-12-01T08:16:28.900Z,97.43
2022-12-01T08:18:58.151Z,97.38
2022-12-01T08:21:27.396Z,97.40
2022-12-01T08:23:57.980Z,97.33
2022-12-01T08:26:27.981Z,97.21
2022-12-01T08:28:58.307Z,97.13
2022-12-01T08:31:32.951Z,97.05
2022-12-01T08:34:04.223Z,97.00
2022-12-01T08:36:33.896Z,96.83
2022-12-01T08:39:03.378Z,96.77
2022-12-01T08:41:32.698Z,96.84
2022-12-01T08:44:02.145Z,96.72
2022-12-01T08:46:33.801Z,96.64
2022-12-01T08:49:04.727Z,96.54
2022-12-01T08:51:34.068Z,96.43
2022-12-01T08:54:03.736Z,96.31
2022-12-01T08:56:35.658Z,96.18
2022-12-01T08:59:05.415Z,95.96
2022-12-01T09:01:35.295Z,95.89
2022-12-01T09:04:09.797Z,95.48
2022-12-01T09:06:43.542Z,95.41
2022-12-01T09:09:16.554Z,95.15
2022-12-01T09:11:46.267Z,95.06
2022-12-01T09:14:18.177Z,94.82
2022-12-01T09:16:49.809Z,94.62
2022-12-01T09:19:24.548Z,94.13
2022-12-01T09:21:51.513Z,93.73
2022-12-01T09:24:21.008Z,93.37
2022-12-01T09:26:50.708Z,93.36
2022-12-01T09:29:20.294Z,92.89
2022-12-01T09:31:49.609Z,92.43
2022-12-01T09:34:20.652Z,91.70
2022-12-01T09:36:50.342Z,91.88
2022-12-01T09:39:21.160Z,91.84
2022-12-01T09:42:07.597Z,91.82
2022-12-01T09:44:37.193Z,91.31
2022-12-01T09:47:12.941Z,90.97
2022-12-01T09:50:03.774Z,89.93
2022-12-01T09:52:42.127Z,89.90
2022-12-01T09:55:16.311Z,88.97
2022-12-01T09:57:50.710Z,87.68
2022-12-01T10:00:26.225Z,85.92
2022-12-01T10:02:58.344Z,85.39
2022-12-01T10:05:30.461Z,85.43
2022-12-01T10:08:08.332Z,84.92
2022-12-01T10:10:49.104Z,83.51
2022-12-01T10:13:21.024Z,82.79
2022-12-01T10:15:59.641Z,80.37
2022-12-01T10:18:57.579Z,78.52
2022-12-01T10:21:48.543Z,77.73
2022-12-01T10:24:23.933Z,77.54
2022-12-01T10:26:56.568Z,78.85
2022-12-01T10:29:31.946Z,78.68
2022-12-01T10:32:21.877Z,80.13
2022-12-01T10:34:51.443Z,81.84
2022-12-01T10:37:26.315Z,78.54
2022-12-01T10:39:57.272Z,76.24
2022-12-01T10:42:37.859Z,76.37
2022-12-01T10:45:10.533Z,75.06
2022-12-01T10:47:40.285Z,77.34
2022-12-01T10:50:10.917Z,79.98
2022-12-01T10:52:43.566Z,80.73
2022-12-01T10:55:27.633Z,81.54
2022-12-01T10:57:58.929Z,83.26
2022-12-01T11:01:01.950Z,81.46
2022-12-01T11:03:03.067Z,79.31
2022-12-01T11:05:35.485Z,77.44
2022-12-01T11:08:04.902Z,77.45
2022-12-01T11:55:25.673Z,86.15
2022-12-01T11:57:58.122Z,84.97
2022-12-01T12:00:30.504Z,85.87
2022-12-01T12:03:21.749Z,85.58
2022-12-01T12:06:18.143Z,85.41
2022-12-01T12:09:02.110Z,85.15
2022-12-01T12:11:46.992Z,85.14
2022-12-01T12:14:22.607Z,84.53
2022-12-01T12:17:15.260Z,84.16
2022-12-01T12:20:09.677Z,83.87
2022-12-01T12:22:52.333Z,83.42
2022-12-01T12:25:28.433Z,83.32
2022-12-01T12:28:20.315Z,83.80
2022-12-01T12:31:05.029Z,83.74
2022-12-01T12:33:43.195Z,83.98
2022-12-01T12:36:38.294Z,82.77
2022-12-01T12:39:32.064Z,83.69
2022-12-01T12:42:03.861Z,83.02
2022-12-01T12:44:48.243Z,82.50
2022-12-01T12:47:23.476Z,83.68
2022-12-01T12:50:01.823Z,83.44
2022-12-01T12:52:36.507Z,83.70
2022-12-01T12:55:23.910Z,82.93
2022-12-01T12:57:59.158Z,82.35
2022-12-01T13:00:30.010Z,82.35
2022-12-01T13:03:34.968Z,82.06
2022-12-01T13:06:13.350Z,82.30
2022-12-01T13:08:54.969Z,80.84
2022-12-01T13:11:27.597Z,81.66
2022-12-01T13:14:00.995Z,82.07
2022-12-01T13:16:33.478Z,82.52
2022-12-01T13:19:20.340Z,82.90
2022-12-01T13:21:51.061Z,81.88
2022-12-01T13:24:24.201Z,81.99
2022-12-01T13:27:04.539Z,82.11
2022-12-01T13:29:46.114Z,82.17
2022-12-01T13:32:07.875Z,82.00
2022-12-01T13:34:42.380Z,82.54
2022-12-01T13:37:12.144Z,83.15
2022-12-01T13:39:42.747Z,82.59
2022-12-01T13:42:26.316Z,83.12
2022-12-01T13:45:01.181Z,83.25
2022-12-01T13:47:51.464Z,82.68
2022-12-01T13:50:46.815Z,83.20
2022-12-01T13:53:22.910Z,82.16
2022-12-01T13:56:19.808Z,82.22
2022-12-01T13:58:51.700Z,81.83
2022-12-01T14:01:24.346Z,81.71
2022-12-01T14:04:01.972Z,81.08
2022-12-01T14:06:42.212Z,81.81
2022-12-01T14:09:34.547Z,81.37
2022-12-01T14:12:06.873Z,81.42
2022-12-01T14:14:39.554Z,81.74
2022-12-01T14:17:08.043Z,81.73
2022-12-01T14:19:53.371Z,81.46
2022-12-01T14:22:44.095Z,82.34
2022-12-01T14:25:27.031Z,82.44
2022-12-01T14:27:56.606Z,82.91
2022-12-01T14:30:45.824Z,83.25
2022-12-01T14:33:46.700Z,83.51
2022-12-01T14:36:37.359Z,84.30
2022-12-01T14:39:16.052Z,85.31
2022-12-01T14:41:47.939Z,85.05
2022-12-01T14:44:26.701Z,85.38
2022-12-01T14:46:59.246Z,85.22
2022-12-01T14:49:33.979Z,85.80
2022-12-01T14:52:07.931Z,86.08
2022-12-01T14:54:46.064Z,86.27
2022-12-01T14:57:17.961Z,86.08
2022-12-01T14:59:47.175Z,86.27
2022-12-01T15:02:16.673Z,86.75
2022-12-01T15:05:17.640Z,87.08
2022-12-01T15:08:06.721Z,87.17
2022-12-01T15:10:36.927Z,87.70
2022-12-01T15:13:30.867Z,87.76
2022-12-01T15:16:03.114Z,88.01
2022-12-01T15:18:39.905Z,88.31
2022-12-01T15:21:21.211Z,88.62
2022-12-01T15:24:22.115Z,88.43
2022-12-01T15:27:02.088Z,89.33
2022-12-01T15:29:36.504Z,89.28
2022-12-01T15:32:08.279Z,89.44
2022-12-01T15:34:46.310Z,89.96
2022-12-01T15:37:21.115Z,89.80
2022-12-01T15:40:47.797Z,90.22
2022-12-01T15:42:38.237Z,90.28
2022-12-01T15:45:22.070Z,90.24
2022-12-01T15:47:54.530Z,90.27
2022-12-01T15:50:32.458Z,90.60
2022-12-01T15:53:04.977Z,90.83
2022-12-01T15:55:38.539Z,91.09
2022-12-01T15:58:09.098Z,91.07
2022-12-01T16:00:38.485Z,91.01
2022-12-01T16:03:12.189Z,91.16
2022-12-01T16:05:44.257Z,91.29
2022-12-01T16:08:22.396Z,91.37
2022-12-01T16:11:16.025Z,91.64
2022-12-01T16:13:51.222Z,92.00
2022-12-01T16:16:41.271Z,92.48
2022-12-01T16:19:14.267Z,92.42
2022-12-01T16:21:49.744Z,92.52
2022-12-01T16:24:24.782Z,92.68
2022-12-01T16:26:56.567Z,92.41
2022-12-01T16:29:27.590Z,92.43
2022-12-01T16:32:19.230Z,92.43
2022-12-01T16:34:46.024Z,92.31
2022-12-01T16:37:01.137Z,92.33
2022-12-01T16:39:30.434Z,92.53
2022-12-01T16:42:01.449Z,92.77
2022-12-01T16:44:30.702Z,92.82
2022-12-01T16:47:00.001Z,92.97
2022-12-01T16:49:29.274Z,93.09
2022-12-01T16:52:01.245Z,93.11
2022-12-01T16:54:29.818Z,93.11
2022-12-01T16:56:59.173Z,93.32
2022-12-01T16:59:28.605Z,93.07
2022-12-01T17:01:58.062Z,93.16
2022-12-01T17:04:27.279Z,93.37
2022-12-01T17:06:56.994Z,93.64
2022-12-01T17:09:26.240Z,93.83
2022-12-01T17:11:56.514Z,93.72
2022-12-01T17:14:26.396Z,94.27
2022-12-01T17:17:00.222Z,94.34
2022-12-01T17:19:26.755Z,94.25
2022-12-01T17:21:57.198Z,94.48
2022-12-01T17:24:26.433Z,94.56
2022-12-01T17:26:55.946Z,94.42
2022-12-01T17:29:26.272Z,94.70
2022-12-01T17:31:55.485Z,94.98
2022-12-01T17:34:24.954Z,94.93
2022-12-01T17:36:54.627Z,94.94
2022-12-01T17:39:24.336Z,94.97
2022-12-01T17:41:55.691Z,95.29
2022-12-01T17:44:25.202Z,95.26
2022-12-01T17:46:54.556Z,95.49
2022-12-01T17:49:24.326Z,95.33
2022-12-01T17:51:53.590Z,95.69
2022-12-01T17:54:22.995Z,95.72
2022-12-01T17:56:52.238Z,95.69
2022-12-01T17:59:21.817Z,95.65
2022-12-01T18:01:51.313Z,95.76
2022-12-01T18:04:20.733Z,95.96
2022-12-01T18:06:54.096Z,96.17
2022-12-01T18:09:21.218Z,96.13
2022-12-01T18:11:50.850Z,96.20
2022-12-01T18:14:20.327Z,96.27
2022-12-01T18:16:49.938Z,96.31
2022-12-01T18:19:19.757Z,96.53
2022-12-01T18:21:50.528Z,96.51
2022-12-01T18:24:19.941Z,96.48
2022-12-01T18:26:49.944Z,96.52
2022-12-01T18:29:28.095Z,96.73
2022-12-01T18:31:58.814Z,96.57
2022-12-01T18:34:32.327Z,96.67
2022-12-01T18:37:03.124Z,96.68
2022-12-01T18:39:32.830Z,96.74
2022-12-01T18:42:02.519Z,96.77
2022-12-01T18:44:32.014Z,96.85
2022-12-01T18:47:03.017Z,96.96
2022-12-01T18:49:32.350Z,97.00
2022-12-01T18:52:03.613Z,97.19
2022-12-01T18:54:32.952Z,97.10
2022-12-01T18:57:02.292Z,97.00
2022-12-01T18:59:31.773Z,97.09
2022-12-01T19:02:02.391Z,96.96
2022-12-01T19:04:31.693Z,97.14
2022-12-01T19:07:01.177Z,97.24
2022-12-01T19:09:30.443Z,97.29
2022-12-01T19:12:00.702Z,97.13
2022-12-01T19:14:30.269Z,97.08
2022-12-01T19:17:00.821Z,97.15
2022-12-01T19:19:35.850Z,97.08
2022-12-01T19:22:01.229Z,97.13
2022-12-01T19:24:30.516Z,97.27
2022-12-01T19:27:00.076Z,97.36
2022-12-01T19:29:29.288Z,97.37
2022-12-01T19:31:59.013Z,97.41
2022-12-01T19:34:28.334Z,97.37
2022-12-01T19:36:57.915Z,97.35
2022-12-01T19:39:27.339Z,97.30
2022-12-01T19:41:58.268Z,97.25
2022-12-01T19:44:27.691Z,97.33
2022-12-01T19:46:57.277Z,97.41
2022-12-01T19:49:26.712Z,97.40
2022-12-01T19:51:56.440Z,97.49
2022-12-01T19:54:28.434Z,97.45
2022-12-01T19:56:57.878Z,97.50
2022-12-01T19:59:27.293Z,97.45
2022-12-01T20:01:56.694Z,97.40
2022-12-01T20:04:26.096Z,97.42
2022-12-01T20:06:55.502Z,97.42
2022-12-01T20:09:24.805Z,97.45
2022-12-01T20:11:55.121Z,97.57
2022-12-01T20:14:24.579Z,97.49
2022-12-01T20:16:58.898Z,97.55
2022-12-01T20:19:28.233Z,97.40
2022-12-01T20:21:57.536Z,97.50
2022-12-01T20:24:26.767Z,97.67
2022-12-01T20:26:58.871Z,97.75
2022-12-01T20:29:29.992Z,97.65
2022-12-01T20:32:01.080Z,97.63
2022-12-01T20:34:36.137Z,97.76
2022-12-01T20:37:05.927Z,97.64
2022-12-01T20:39:36.919Z,97.44
2022-12-01T20:42:06.768Z,97.61
2022-12-01T20:44:36.858Z,97.63
2022-12-01T20:47:06.346Z,97.63
2022-12-01T20:49:36.114Z,97.67
2022-12-01T20:52:05.721Z,97.67
2022-12-01T20:54:35.030Z,97.60
2022-12-01T20:57:04.548Z,97.59
2022-12-01T20:59:33.998Z,97.49
2022-12-01T21:02:03.378Z,97.50
2022-12-01T21:04:32.925Z,97.42
2022-12-01T21:07:02.133Z,97.41
2022-12-01T21:09:31.887Z,97.43
2022-12-01T21:12:20.452Z,97.39
2022-12-01T21:14:58.979Z,97.33
2022-12-01T21:17:36.714Z,97.31
2022-12-01T21:20:27.249Z,97.30
2022-12-01T21:22:59.662Z,97.21
2022-12-01T21:25:29.325Z,97.20
2022-12-01T21:28:01.350Z,97.14
2022-12-01T21:30:31.318Z,97.07
2022-12-01T21:33:03.762Z,97.02
2022-12-01T21:35:33.232Z,97.05
2022-12-01T21:38:05.277Z,97.14
2022-12-01T21:40:35.096Z,96.96
2022-12-01T21:43:23.427Z,96.85
2022-12-01T21:45:58.618Z,96.90
2022-12-01T21:48:31.213Z,96.80
2022-12-01T21:51:03.400Z,96.78
2022-12-01T21:53:35.903Z,96.68
2022-12-01T21:56:05.338Z,96.71
2022-12-01T21:58:37.406Z,96.64
2022-12-01T22:01:12.799Z,96.53
2022-12-01T22:03:46.679Z,96.44
2022-12-01T22:06:31.751Z,96.51
2022-12-01T22:08:56.925Z,96.56
2022-12-01T22:11:28.661Z,96.61
2022-12-01T22:14:13.538Z,96.38
2022-12-01T22:16:52.218Z,96.52
2022-12-01T22:19:35.584Z,96.50
2022-12-01T22:22:08.146Z,96.29
2022-12-01T22:24:39.338Z,96.23
2022-12-01T22:27:38.503Z,96.30
2022-12-01T22:30:10.893Z,96.19
2022-12-01T22:32:52.935Z,96.23
2022-12-01T22:35:27.901Z,96.29
2022-12-01T22:38:30.901Z,96.18
2022-12-01T22:41:05.086Z,96.29
2022-12-01T22:43:45.750Z,96.24
2022-12-01T22:46:40.743Z,96.04
2022-12-01T22:49:19.706Z,96.20
2022-12-01T22:51:57.984Z,96.12
2022-12-01T22:54:33.021Z,96.13
2022-12-01T22:57:32.439Z,96.17
2022-12-01T23:00:19.058Z,96.33
2022-12-01T23:02:52.117Z,96.32
2022-12-01T23:05:31.668Z,96.34
2022-12-01T23:08:01.708Z,96.33
2022-12-01T23:10:32.631Z,96.16
2022-12-01T23:13:06.307Z,96.05
2022-12-01T23:15:40.755Z,96.05
2022-12-01T23:18:15.870Z,96.30
2022-12-01T23:20:47.775Z,96.16
2022-12-01T23:23:19.859Z,96.10
2022-12-01T23:25:50.768Z,96.13
2022-12-01T23:28:20.592Z,96.10
2022-12-01T23:30:52.459Z,96.06
2022-12-01T23:33:27.659Z,96.07
2022-12-01T23:36:08.635Z,96.11
2022-12-01T23:38:42.879Z,96.12
2022-12-01T23:41:15.426Z,96.07
2022-12-01T23:43:46.044Z,96.20
2022-12-01T23:46:23.777Z,96.23
2022-12-01T23:48:55.549Z,96.14
2022-12-01T23:51:33.616Z,96.18
2022-12-01T23:54:06.034Z,96.18
2022-12-01T23:56:37.103Z,96.15
2022-12-01T23:59:09.340Z,96.13
